Time;durP1;ratioP1;P1;durP2;ratioP2;P2;SDS_P1;SDS_P2;PMS_P1;PMS_P2;Temp;Humidity;BMP_temperature;BMP_pressure;BME280_temperature;BME280_humidity;BME280_pressure;Samples;Min_cycle;Max_cycle;Signal;HPM_P1;HPM_P2
2022/01/02 00:01:54;;;;;;;;;;;;;;;;;;5096850;28;19924;-74
2022/01/02 00:04:21;;;;;;;;;;;;;;;;;;5096738;28;20297;-74
2022/01/02 00:06:50;;;;;;;;;;;;;;;;;;5096992;28;19958;-74
2022/01/02 00:09:29;;;;;;;;;;;;;;;;;;5096680;28;19931;-74
2022/01/02 00:11:59;;;;;;;;;;;;;;;;;;5094708;28;19916;-74
2022/01/02 00:14:28;;;;;;;;;;;;;;;;;;5096563;28;19970;-74
2022/01/02 00:16:54;;;;;;;;;;;;;;;;;;5096529;28;19916;-73
2022/01/02 00:19:28;;;;;;;;;;;;;;;;;;5096732;28;20297;-74
2022/01/02 00:21:56;;;;;;;;;;;;;;;;;;5095200;28;19943;-74
2022/01/02 00:24:21;;;;;;;;;;;;;;;;;;5095184;28;19924;-74
2022/01/02 00:26:49;;;;;;;;;;;;;;;;;;5095718;28;19973;-74
2022/01/02 00:29:14;;;;;;;;;;;;;;;;;;5095258;28;19920;-74
2022/01/02 00:31:40;;;;;;;;;;;;;;;;;;5096525;28;19923;-74
2022/01/02 00:34:06;;;;;;;;;;;;;;;;;;5094566;28;19962;-74
2022/01/02 00:36:32;;;;;;;;;;;;;;;;;;5096208;28;19916;-74
2022/01/02 00:38:57;;;;;;;;;;;;;;;;;;5096309;28;19998;-74
2022/01/02 00:41:29;;;;;;;;;;;;;;;;;;5095304;28;20343;-74
2022/01/02 00:44:13;;;;;;;;;;;;;;;;;;5096106;28;19924;-74
2022/01/02 00:46:46;;;;;;;;;;;;;;;;;;5094662;28;19931;-74
2022/01/02 00:49:11;;;;;;;;;;;;;;;;;;5095408;28;19970;-74
2022/01/02 00:51:46;;;;;;;;;;;;;;;;;;5096236;28;19920;-74
2022/01/02 00:54:14;;;;;;;;;;;;;;;;;;5095637;28;19920;-74
2022/01/02 00:56:42;;;;;;;;;;;;;;;;;;5094434;28;19941;-74
2022/01/02 00:59:13;;;;;;;;;;;;;;;;;;5094311;28;19947;-74
2022/01/02 01:01:41;;;;;;;;;;;;;;;;;;5095708;28;20319;-74
2022/01/02 01:04:07;;;;;;;;;;;;;;;;;;5094482;28;19965;-74
2022/01/02 01:06:33;;;;;;;;;;;;;;;;;;5095351;28;20473;-74
2022/01/02 01:09:00;;;;;;;;;;;;;;;;;;5093230;28;20512;-74
2022/01/02 01:11:27;;;;;;;;;;;;;;;;;;5095461;28;19916;-74
2022/01/02 01:13:53;;;;;;;;;;;;;;;;;;5095543;28;20315;-74
2022/01/02 01:16:19;;;;;;;;;;;;;;;;;;5094247;28;19942;-74
2022/01/02 01:18:44;;;;;;;;;;;;;;;;;;5095307;28;19916;-74
2022/01/02 01:21:10;;;;;;;;;;;;;;;;;;5095186;28;20285;-74
2022/01/02 01:23:35;;;;;;;;;;;;;;;;;;5094391;28;19920;-74
2022/01/02 01:26:06;;;;;;;;;;;;;;;;;;5094957;28;19956;-74
2022/01/02 01:28:32;;;;;;;;;;;;;;;;;;5077222;28;20388;-74
2022/01/02 01:30:57;;;;;;;;;;;;;;;;;;5095175;28;19916;-74
2022/01/02 01:33:22;;;;;;;;;;;;;;;;;;5093104;28;19916;-74
2022/01/02 01:35:48;;;;;;;;;;;;;;;;;;5094996;28;19920;-74
2022/01/02 01:38:13;;;;;;;;;;;;;;;;;;5093916;28;19912;-74
2022/01/02 01:41:05;;;;;;;;;;;;;;;;;;5092679;28;20384;-74
2022/01/02 01:43:39;;;;;;;;;;;;;;;;;;5089579;28;19924;-74
2022/01/02 01:46:04;;;;;;;;;;;;;;;;;;5092418;28;19923;-74
2022/01/02 01:48:30;;;;;;;;;;;;;;;;;;5093615;28;20313;-74
2022/01/02 01:50:55;;;;;;;;;;;;;;;;;;5094792;28;19941;-74
2022/01/02 01:53:22;;;;;;;;;;;;;;;;;;5093343;28;19916;-74
2022/01/02 01:55:48;;;;;;;;;;;;;;;;;;5093096;28;19916;-74
2022/01/02 01:58:15;;;;;;;;;;;;;;;;;;5090949;28;20018;-74
2022/01/02 02:00:43;;;;;;;;;;;;;;;;;;5072985;28;19916;-74
2022/01/02 02:03:17;;;;;;;;;;;;;;;;;;5073043;28;20061;-74
2022/01/02 02:05:43;;;;;;;;;;;;;;;;;;5078112;28;20003;-74
2022/01/02 02:08:10;;;;;;;;;;;;;;;;;;5093038;28;20010;-74
2022/01/02 02:10:39;;;;;;;;;;;;;;;;;;5094349;28;19938;-74
2022/01/02 02:13:07;;;;;;;;;;;;;;;;;;5075877;28;20370;-74
2022/01/02 02:15:37;;;;;;;;;;;;;;;;;;5092715;28;19916;-74
2022/01/02 02:18:03;;;;;;;;;;;;;;;;;;5092153;28;19916;-74
2022/01/02 02:20:33;;;;;;;;;;;;;;;;;;5094256;28;20270;-74
2022/01/02 02:23:03;;;;;;;;;;;;;;;;;;5092941;28;19920;-74
2022/01/02 02:25:32;;;;;;;;;;;;;;;;;;5092886;28;19923;-74
2022/01/02 02:28:17;;;;;;;;;;;;;;;;;;5092806;28;19927;-74
2022/01/02 02:30:47;;;;;;;;;;;;;;;;;;5076841;28;20282;-74
2022/01/02 02:33:13;;;;;;;;;;;;;;;;;;5093950;28;19923;-74
2022/01/02 02:35:40;;;;;;;;;;;;;;;;;;5092326;28;19916;-74
2022/01/02 02:38:07;;;;;;;;;;;;;;;;;;5092470;28;19916;-74
2022/01/02 02:40:34;;;;;;;;;;;;;;;;;;5092688;28;19916;-74
2022/01/02 02:43:08;;;;;;;;;;;;;;;;;;5092791;28;19989;-74
2022/01/02 02:49:00;;;;;;;;;;;;;;;;;;5092292;28;20370;-74
2022/01/02 02:51:23;;;;;;;;;;;;;;;;;;5092853;28;20341;-74
2022/01/02 02:53:49;;;;;;;;;;;;;;;;;;5093483;28;19961;-74
2022/01/02 02:59:04;;;;;;;;;;;;;;;;;;5092669;28;19923;-74
2022/01/02 03:01:29;;;;;;;;;;;;;;;;;;5092359;28;19920;-74
2022/01/02 03:03:57;;;;;;;;;;;;;;;;;;5092710;28;19927;-74
2022/01/02 03:06:22;;;;;;;;;;;;;;;;;;5092139;28;19916;-74
2022/01/02 03:08:49;;;;;;;;;;;;;;;;;;5091511;28;19916;-74
2022/01/02 03:11:18;;;;;;;;;;;;;;;;;;5093853;28;19920;-74
2022/01/02 03:13:44;;;;;;;;;;;;;;;;;;5092287;28;19923;-74
2022/01/02 03:16:10;;;;;;;;;;;;;;;;;;5093446;28;19923;-74
2022/01/02 03:18:36;;;;;;;;;;;;;;;;;;5092346;28;19916;-74
2022/01/02 03:21:01;;;;;;;;;;;;;;;;;;5091184;28;19920;-74
2022/01/02 03:23:27;;;;;;;;;;;;;;;;;;5093539;28;19920;-74
2022/01/02 03:25:53;;;;;;;;;;;;;;;;;;5093612;28;19920;-74
2022/01/02 03:28:20;;;;;;;;;;;;;;;;;;5075766;28;19955;-74
2022/01/02 03:30:46;;;;;;;;;;;;;;;;;;5092208;28;20352;-74
2022/01/02 03:33:11;;;;;;;;;;;;;;;;;;5092321;28;19923;-74
2022/01/02 03:35:37;;;;;;;;;;;;;;;;;;5073271;28;19956;-75
2022/01/02 03:38:03;;;;;;;;;;;;;;;;;;5071952;28;19956;-75
2022/01/02 03:40:28;;;;;;;;;;;;;;;;;;5072154;28;19931;-74
2022/01/02 03:42:54;;;;;;;;;;;;;;;;;;5071879;28;19916;-74
2022/01/02 03:45:20;;;;;;;;;;;;;;;;;;5073326;28;20310;-75
2022/01/02 03:47:45;;;;;;;;;;;;;;;;;;5071539;28;19996;-75
2022/01/02 03:50:11;;;;;;;;;;;;;;;;;;5072805;28;20416;-75
2022/01/02 03:52:37;;;;;;;;;;;;;;;;;;5073138;28;19916;-74
2022/01/02 03:55:03;;;;;;;;;;;;;;;;;;5071430;28;19916;-74
2022/01/02 03:57:28;;;;;;;;;;;;;;;;;;5089364;28;20011;-74
2022/01/02 03:59:53;;;;;;;;;;;;;;;;;;5093454;28;19916;-74
2022/01/02 04:02:19;;;;;;;;;;;;;;;;;;5096333;28;19967;-74
2022/01/02 04:04:44;;;;;;;;;;;;;;;;;;5096050;28;19974;-75
2022/01/02 04:07:09;;;;;;;;;;;;;;;;;;5096539;28;19943;-75
2022/01/02 04:09:35;;;;;;;;;;;;;;;;;;5095666;28;19916;-74
2022/01/02 04:12:00;;;;;;;;;;;;;;;;;;5095500;28;19920;-74
2022/01/02 04:14:27;;;;;;;;;;;;;;;;;;5095336;28;20282;-74
2022/01/02 04:16:52;;;;;;;;;;;;;;;;;;5095233;28;19942;-74
2022/01/02 04:19:18;;;;;;;;;;;;;;;;;;5095174;28;19969;-74
2022/01/02 04:21:43;;;;;;;;;;;;;;;;;;5096158;28;19921;-75
2022/01/02 04:24:09;;;;;;;;;;;;;;;;;;5095229;28;19920;-74
2022/01/02 04:26:34;;;;;;;;;;;;;;;;;;5096315;28;20293;-75
2022/01/02 04:29:00;;;;;;;;;;;;;;;;;;5095329;28;19916;-75
2022/01/02 04:31:25;;;;;;;;;;;;;;;;;;5095350;28;20327;-74
2022/01/02 04:33:51;;;;;;;;;;;;;;;;;;5094349;28;19924;-75
2022/01/02 04:36:17;;;;;;;;;;;;;;;;;;5094644;28;19916;-74
2022/01/02 04:38:44;;;;;;;;;;;;;;;;;;5095088;28;20006;-75
2022/01/02 04:41:10;;;;;;;;;;;;;;;;;;5093771;28;19916;-75
2022/01/02 04:43:35;;;;;;;;;;;;;;;;;;5096394;28;20369;-75
2022/01/02 04:46:01;;;;;;;;;;;;;;;;;;5095824;28;20015;-75
2022/01/02 04:48:27;;;;;;;;;;;;;;;;;;5094453;28;19916;-75
2022/01/02 04:50:52;;;;;;;;;;;;;;;;;;5094960;28;20387;-75
2022/01/02 04:53:20;;;;;;;;;;;;;;;;;;5094503;28;19916;-75
2022/01/02 04:55:45;;;;;;;;;;;;;;;;;;5094985;28;19934;-75
2022/01/02 04:58:11;;;;;;;;;;;;;;;;;;5095611;28;20396;-75
2022/01/02 05:00:36;;;;;;;;;;;;;;;;;;5094633;28;20346;-74
2022/01/02 05:03:02;;;;;;;;;;;;;;;;;;5095892;28;19947;-75
2022/01/02 05:05:28;;;;;;;;;;;;;;;;;;5093503;28;19923;-75
2022/01/02 05:07:54;;;;;;;;;;;;;;;;;;5094397;28;19916;-75
2022/01/02 05:10:20;;;;;;;;;;;;;;;;;;5095791;28;19995;-75
2022/01/02 05:12:45;;;;;;;;;;;;;;;;;;5094062;28;19916;-75
2022/01/02 05:15:11;;;;;;;;;;;;;;;;;;5094432;28;20366;-74
2022/01/02 05:17:36;;;;;;;;;;;;;;;;;;5094368;28;20443;-75
2022/01/02 05:20:03;;;;;;;;;;;;;;;;;;5093044;28;20423;-75
2022/01/02 05:22:28;;;;;;;;;;;;;;;;;;5094145;28;19923;-75
2022/01/02 05:24:54;;;;;;;;;;;;;;;;;;5095282;28;19920;-75
2022/01/02 05:27:19;;;;;;;;;;;;;;;;;;5094077;28;19916;-75
2022/01/02 05:29:45;;;;;;;;;;;;;;;;;;5094180;28;20361;-75
2022/01/02 05:32:10;;;;;;;;;;;;;;;;;;5093993;28;19972;-75
2022/01/02 05:34:36;;;;;;;;;;;;;;;;;;5095141;28;19916;-75
2022/01/02 05:37:04;;;;;;;;;;;;;;;;;;5093551;28;20293;-75
2022/01/02 05:39:31;;;;;;;;;;;;;;;;;;5093029;28;19919;-75
2022/01/02 05:41:56;;;;;;;;;;;;;;;;;;5093753;28;20071;-75
2022/01/02 05:44:23;;;;;;;;;;;;;;;;;;5093620;28;19920;-75
2022/01/02 05:46:49;;;;;;;;;;;;;;;;;;5093614;28;20300;-75
2022/01/02 05:49:16;;;;;;;;;;;;;;;;;;5092829;28;19959;-75
2022/01/02 05:51:42;;;;;;;;;;;;;;;;;;5093479;28;19916;-75
2022/01/02 05:54:08;;;;;;;;;;;;;;;;;;5092676;28;19923;-75
2022/01/02 05:56:34;;;;;;;;;;;;;;;;;;5076155;28;19923;-75
2022/01/02 05:58:59;;;;;;;;;;;;;;;;;;5094725;28;20374;-75
2022/01/02 06:01:25;;;;;;;;;;;;;;;;;;5093433;28;20262;-75
2022/01/02 06:03:50;;;;;;;;;;;;;;;;;;5092847;28;20391;-75
2022/01/02 06:06:16;;;;;;;;;;;;;;;;;;5092359;28;19916;-75
2022/01/02 06:08:42;;;;;;;;;;;;;;;;;;5092935;28;19959;-75
2022/01/02 06:11:07;;;;;;;;;;;;;;;;;;5093144;28;19954;-74
2022/01/02 06:13:33;;;;;;;;;;;;;;;;;;5093290;28;19955;-75
2022/01/02 06:15:58;;;;;;;;;;;;;;;;;;5092977;28;19947;-75
2022/01/02 06:18:23;;;;;;;;;;;;;;;;;;5093229;28;19916;-75
2022/01/02 06:20:49;;;;;;;;;;;;;;;;;;5092579;28;19916;-75
2022/01/02 06:23:16;;;;;;;;;;;;;;;;;;5093723;28;19928;-75
2022/01/02 06:25:42;;;;;;;;;;;;;;;;;;5092987;28;19920;-75
2022/01/02 06:28:08;;;;;;;;;;;;;;;;;;5092171;28;19923;-75
2022/01/02 06:30:33;;;;;;;;;;;;;;;;;;5093022;28;19912;-75
2022/01/02 06:32:59;;;;;;;;;;;;;;;;;;5092762;28;19920;-75
2022/01/02 06:35:27;;;;;;;;;;;;;;;;;;5092787;28;19916;-75
2022/01/02 06:37:53;;;;;;;;;;;;;;;;;;5092690;28;19938;-75
2022/01/02 06:40:20;;;;;;;;;;;;;;;;;;5092049;28;20284;-75
2022/01/02 06:42:46;;;;;;;;;;;;;;;;;;5094065;28;19922;-75
2022/01/02 06:45:12;;;;;;;;;;;;;;;;;;5092618;28;20296;-75
2022/01/02 06:47:37;;;;;;;;;;;;;;;;;;5092268;28;20031;-75
2022/01/02 06:50:03;;;;;;;;;;;;;;;;;;5093684;28;20428;-75
2022/01/02 06:52:29;;;;;;;;;;;;;;;;;;5092726;28;19927;-75
2022/01/02 06:54:54;;;;;;;;;;;;;;;;;;5092721;28;19916;-75
2022/01/02 06:57:21;;;;;;;;;;;;;;;;;;5091742;28;20338;-75
2022/01/02 06:59:48;;;;;;;;;;;;;;;;;;5092788;28;19969;-74
2022/01/02 07:02:14;;;;;;;;;;;;;;;;;;5092530;28;20408;-75
2022/01/02 07:04:39;;;;;;;;;;;;;;;;;;5091728;28;19920;-75
2022/01/02 07:07:05;;;;;;;;;;;;;;;;;;5093718;28;20003;-75
2022/01/02 07:09:31;;;;;;;;;;;;;;;;;;5092654;28;20361;-74
2022/01/02 07:11:57;;;;;;;;;;;;;;;;;;5093637;28;19916;-75
2022/01/02 07:14:26;;;;;;;;;;;;;;;;;;5092794;28;20377;-75
2022/01/02 07:16:52;;;;;;;;;;;;;;;;;;5093392;28;19995;-76
2022/01/02 07:19:17;;;;;;;;;;;;;;;;;;5092184;28;19981;-75
2022/01/02 07:21:42;;;;;;;;;;;;;;;;;;5092344;28;19916;-76
2022/01/02 07:24:07;;;;;;;;;;;;;;;;;;5093447;28;19920;-76
2022/01/02 07:26:33;;;;;;;;;;;;;;;;;;5093388;28;19919;-75
2022/01/02 07:28:58;;;;;;;;;;;;;;;;;;5092256;28;19927;-75
2022/01/02 07:31:24;;;;;;;;;;;;;;;;;;5093376;28;19916;-75
2022/01/02 07:33:49;;;;;;;;;;;;;;;;;;5092377;28;19923;-76
2022/01/02 07:36:14;;;;;;;;;;;;;;;;;;5095098;28;19916;-76
2022/01/02 07:38:40;;;;;;;;;;;;;;;;;;5096309;28;20270;-76
2022/01/02 07:41:05;;;;;;;;;;;;;;;;;;5096921;28;19962;-76
2022/01/02 07:43:30;;;;;;;;;;;;;;;;;;5094946;28;19924;-76
2022/01/02 07:45:55;;;;;;;;;;;;;;;;;;5097170;28;19920;-76
2022/01/02 07:48:21;;;;;;;;;;;;;;;;;;5095957;28;19920;-76
2022/01/02 07:50:46;;;;;;;;;;;;;;;;;;5096220;28;19920;-75
2022/01/02 07:53:11;;;;;;;;;;;;;;;;;;5096969;28;20366;-75
2022/01/02 07:55:37;;;;;;;;;;;;;;;;;;5095983;28;19923;-75
2022/01/02 07:58:02;;;;;;;;;;;;;;;;;;5097006;28;19916;-75
2022/01/02 08:00:28;;;;;;;;;;;;;;;;;;5096830;28;20035;-75
2022/01/02 08:02:53;;;;;;;;;;;;;;;;;;5096827;28;19918;-75
2022/01/02 08:05:18;;;;;;;;;;;;;;;;;;5095454;28;19920;-75
2022/01/02 08:07:43;;;;;;;;;;;;;;;;;;5097020;28;19946;-75
2022/01/02 08:10:09;;;;;;;;;;;;;;;;;;5096943;28;19931;-75
2022/01/02 08:12:34;;;;;;;;;;;;;;;;;;5096977;28;19916;-75
2022/01/02 08:15:00;;;;;;;;;;;;;;;;;;5096426;28;19916;-74
2022/01/02 08:17:27;;;;;;;;;;;;;;;;;;5097184;28;19912;-76
2022/01/02 08:19:52;;;;;;;;;;;;;;;;;;5096522;28;19916;-76
2022/01/02 08:22:18;;;;;;;;;;;;;;;;;;5096351;28;20293;-75
2022/01/02 08:24:43;;;;;;;;;;;;;;;;;;5096763;28;19920;-75
2022/01/02 08:27:08;;;;;;;;;;;;;;;;;;5096045;28;20487;-76
2022/01/02 08:29:34;;;;;;;;;;;;;;;;;;5096350;28;19923;-76
2022/01/02 08:31:59;;;;;;;;;;;;;;;;;;5096421;28;20011;-75
2022/01/02 08:34:24;;;;;;;;;;;;;;;;;;5096455;28;19919;-75
2022/01/02 08:36:50;;;;;;;;;;;;;;;;;;5096157;28;19969;-76
2022/01/02 08:39:15;;;;;;;;;;;;;;;;;;5095835;28;20000;-76
2022/01/02 08:41:40;;;;;;;;;;;;;;;;;;5095334;28;19945;-76
2022/01/02 08:44:06;;;;;;;;;;;;;;;;;;5096207;28;19920;-76
2022/01/02 08:46:31;;;;;;;;;;;;;;;;;;5094254;28;20361;-76
2022/01/02 08:48:56;;;;;;;;;;;;;;;;;;5096241;28;20022;-76
2022/01/02 08:51:22;;;;;;;;;;;;;;;;;;5095815;28;19943;-76
2022/01/02 08:53:47;;;;;;;;;;;;;;;;;;5096108;28;19962;-77
2022/01/02 08:56:13;;;;;;;;;;;;;;;;;;5095581;28;20014;-77
2022/01/02 08:58:38;;;;;;;;;;;;;;;;;;5094433;28;19916;-76
2022/01/02 09:01:04;;;;;;;;;;;;;;;;;;5095987;28;19922;-77
2022/01/02 09:03:29;;;;;;;;;;;;;;;;;;5096395;28;20011;-77
2022/01/02 09:05:55;;;;;;;;;;;;;;;;;;5115956;28;20400;-77
2022/01/02 09:08:20;;;;;;;;;;;;;;;;;;5116122;28;19943;-79
2022/01/02 09:10:45;;;;;;;;;;;;;;;;;;5116827;28;19916;-76
2022/01/02 09:13:11;;;;;;;;;;;;;;;;;;5114534;28;19922;-77
2022/01/02 09:15:36;;;;;;;;;;;;;;;;;;5116066;28;19916;-78
2022/01/02 09:18:03;;;;;;;;;;;;;;;;;;5115792;28;20414;-77
2022/01/02 09:20:28;;;;;;;;;;;;;;;;;;5115471;28;19920;-76
2022/01/02 09:22:55;;;;;;;;;;;;;;;;;;5115870;28;20026;-76
2022/01/02 09:25:20;;;;;;;;;;;;;;;;;;5115439;28;19926;-77
2022/01/02 09:27:45;;;;;;;;;;;;;;;;;;5115662;28;20002;-77
2022/01/02 09:30:11;;;;;;;;;;;;;;;;;;5115406;28;20304;-76
2022/01/02 09:32:37;;;;;;;;;;;;;;;;;;5115733;28;19915;-75
2022/01/02 09:35:05;;;;;;;;;;;;;;;;;;5099781;28;19938;-76
2022/01/02 09:37:31;;;;;;;;;;;;;;;;;;5095068;28;20015;-76
2022/01/02 09:39:56;;;;;;;;;;;;;;;;;;5094925;28;20400;-77
2022/01/02 09:42:22;;;;;;;;;;;;;;;;;;5094898;28;19916;-77
2022/01/02 09:44:47;;;;;;;;;;;;;;;;;;5093841;28;19920;-76
2022/01/02 09:47:14;;;;;;;;;;;;;;;;;;5093526;28;19916;-76
2022/01/02 09:49:39;;;;;;;;;;;;;;;;;;5094753;28;20350;-76
2022/01/02 09:52:05;;;;;;;;;;;;;;;;;;5095071;28;20003;-76
2022/01/02 09:54:33;;;;;;;;;;;;;;;;;;5094072;28;21374;-76
2022/01/02 09:56:58;;;;;;;;;;;;;;;;;;5093917;28;19916;-76
2022/01/02 09:59:23;;;;;;;;;;;;;;;;;;5094102;28;19930;-76
2022/01/02 10:01:48;;;;;;;;;;;;;;;;;;5094678;28;19943;-76
2022/01/02 10:04:31;;;;;;;;;;;;;;;;;;5094471;28;19939;-76
2022/01/02 10:06:57;;;;;;;;;;;;;;;;;;5093575;28;19915;-76
2022/01/02 10:09:31;;;;;;;;;;;;;;;;;;5094561;28;19916;-76
2022/01/02 10:12:15;;;;;;;;;;;;;;;;;;5093660;28;20373;-76
2022/01/02 10:14:40;;;;;;;;;;;;;;;;;;5094593;28;19938;-75
2022/01/02 10:17:05;;;;;;;;;;;;;;;;;;5094468;28;20409;-75
2022/01/02 10:19:35;;;;;;;;;;;;;;;;;;5094096;28;19924;-75
2022/01/02 10:22:02;;;;;;;;;;;;;;;;;;5094266;28;19932;-76
2022/01/02 10:24:29;;;;;;;;;;;;;;;;;;5094859;28;19916;-76
2022/01/02 10:27:14;;;;;;;;;;;;;;;;;;5094089;28;19915;-76
2022/01/02 10:29:39;;;;;;;;;;;;;;;;;;5094228;28;19955;-75
2022/01/02 10:32:23;;;;;;;;;;;;;;;;;;5094161;28;19978;-75
2022/01/02 10:34:49;;;;;;;;;;;;;;;;;;5092386;28;19916;-75
2022/01/02 10:37:24;;;;;;;;;;;;;;;;;;5094056;28;20000;-75
2022/01/02 10:39:49;;;;;;;;;;;;;;;;;;5094176;28;19951;-75
2022/01/02 10:42:16;;;;;;;;;;;;;;;;;;5094124;28;19982;-75
2022/01/02 10:44:41;;;;;;;;;;;;;;;;;;5093140;28;20277;-75
2022/01/02 10:47:07;;;;;;;;;;;;;;;;;;5092480;28;19920;-74
2022/01/02 10:49:48;;;;;;;;;;;;;;;;;;5091982;28;19916;-73
2022/01/02 10:52:17;;;;;;;;;;;;;;;;;;5093934;28;19916;-74
2022/01/02 10:54:43;;;;;;;;;;;;;;;;;;5093982;28;20392;-76
2022/01/02 10:57:08;;;;;;;;;;;;;;;;;;5093651;28;19917;-75
2022/01/02 10:59:34;;;;;;;;;;;;;;;;;;5093808;28;19923;-74
2022/01/02 11:01:59;;;;;;;;;;;;;;;;;;5094021;28;19920;-76
2022/01/02 11:04:30;;;;;;;;;;;;;;;;;;5093689;28;19916;-76
2022/01/02 11:06:55;;;;;;;;;;;;;;;;;;5086089;28;19923;-75
2022/01/02 11:09:21;;;;;;;;;;;;;;;;;;5091717;28;20383;-77
2022/01/02 11:11:46;;;;;;;;;;;;;;;;;;5098093;28;20331;-77
2022/01/02 11:14:13;;;;;;;;;;;;;;;;;;5098016;28;19916;-76
2022/01/02 11:16:39;;;;;;;;;;;;;;;;;;5096937;28;19916;-76
2022/01/02 11:19:05;;;;;;;;;;;;;;;;;;5097598;28;19938;-75
2022/01/02 11:21:31;;;;;;;;;;;;;;;;;;5096437;28;19923;-74
2022/01/02 11:24:15;;;;;;;;;;;;;;;;;;5096139;28;19970;-74
2022/01/02 11:26:42;;;;;;;;;;;;;;;;;;5097292;28;19994;-75
2022/01/02 11:29:07;;;;;;;;;;;;;;;;;;5096893;28;19916;-75
2022/01/02 11:31:34;;;;;;;;;;;;;;;;;;5097556;28;20003;-74
2022/01/02 11:34:00;;;;;;;;;;;;;;;;;;5096691;28;20277;-75
2022/01/02 11:36:30;;;;;;;;;;;;;;;;;;5096013;28;19916;-76
2022/01/02 11:38:58;;;;;;;;;;;;;;;;;;5097288;28;19951;-76
2022/01/02 11:41:42;;;;;;;;;;;;;;;;;;5097311;28;19920;-76
2022/01/02 11:44:12;;;;;;;;;;;;;;;;;;5096222;28;19915;-76
2022/01/02 11:46:55;;;;;;;;;;;;;;;;;;5097082;28;19926;-76
2022/01/02 11:49:23;;;;;;;;;;;;;;;;;;5097243;28;19922;-75
2022/01/02 11:51:48;;;;;;;;;;;;;;;;;;5096488;28;19916;-77
2022/01/02 11:54:32;;;;;;;;;;;;;;;;;;5096982;28;19919;-77
2022/01/02 11:56:57;;;;;;;;;;;;;;;;;;5078096;28;19970;-76
2022/01/02 11:59:47;;;;;;;;;;;;;;;;;;5097099;28;19912;-75
2022/01/02 12:02:12;;;;;;;;;;;;;;;;;;5096729;28;20292;-74
2022/01/02 12:04:56;;;;;;;;;;;;;;;;;;5095845;28;19916;-74
2022/01/02 12:07:34;;;;;;;;;;;;;;;;;;5096896;28;19916;-74
2022/01/02 12:10:18;;;;;;;;;;;;;;;;;;5095096;28;19923;-74
2022/01/02 12:13:04;;;;;;;;;;;;;;;;;;5095373;28;20014;-74
2022/01/02 12:15:32;;;;;;;;;;;;;;;;;;5094372;28;20019;-74
2022/01/02 12:18:10;;;;;;;;;;;;;;;;;;5096736;28;19916;-74
2022/01/02 12:20:50;;;;;;;;;;;;;;;;;;5095716;28;19938;-75
2022/01/02 12:23:31;;;;;;;;;;;;;;;;;;5096220;28;19920;-75
2022/01/02 12:26:06;;;;;;;;;;;;;;;;;;5095536;28;19923;-74
2022/01/02 12:28:40;;;;;;;;;;;;;;;;;;5096541;28;20361;-75
2022/01/02 12:31:06;;;;;;;;;;;;;;;;;;5094399;28;20243;-74
2022/01/02 12:33:31;;;;;;;;;;;;;;;;;;5096433;28;19947;-74
2022/01/02 12:35:57;;;;;;;;;;;;;;;;;;5096388;28;20416;-74
2022/01/02 12:38:23;;;;;;;;;;;;;;;;;;5096261;28;20733;-74
2022/01/02 12:40:49;;;;;;;;;;;;;;;;;;5096364;28;19916;-74
2022/01/02 12:43:14;;;;;;;;;;;;;;;;;;5096038;28;19920;-74
2022/01/02 12:45:40;;;;;;;;;;;;;;;;;;5094841;28;19923;-74
2022/01/02 12:48:05;;;;;;;;;;;;;;;;;;5095140;28;20548;-74
2022/01/02 12:50:32;;;;;;;;;;;;;;;;;;5096033;28;19955;-74
2022/01/02 12:52:58;;;;;;;;;;;;;;;;;;5094660;28;19916;-74
2022/01/02 12:55:23;;;;;;;;;;;;;;;;;;5095909;28;20302;-74
2022/01/02 12:57:49;;;;;;;;;;;;;;;;;;5094332;28;19916;-74
2022/01/02 13:00:15;;;;;;;;;;;;;;;;;;5095140;28;20007;-74
2022/01/02 13:02:40;;;;;;;;;;;;;;;;;;5094678;28;19924;-74
2022/01/02 13:05:06;;;;;;;;;;;;;;;;;;5095409;28;19916;-73
2022/01/02 13:07:36;;;;;;;;;;;;;;;;;;5095763;28;19924;-73
2022/01/02 13:10:06;;;;;;;;;;;;;;;;;;5092685;28;19920;-73
2022/01/02 13:12:32;;;;;;;;;;;;;;;;;;5091228;28;20405;-74
2022/01/02 13:14:57;;;;;;;;;;;;;;;;;;5095778;28;19916;-74
2022/01/02 13:17:33;;;;;;;;;;;;;;;;;;5095531;28;20292;-76
2022/01/02 13:20:17;;;;;;;;;;;;;;;;;;5085274;28;19916;-74
2022/01/02 13:22:46;;;;;;;;;;;;;;;;;;5074870;28;19921;-74
2022/01/02 13:25:16;;;;;;;;;;;;;;;;;;5075052;28;20015;-74
2022/01/02 13:27:52;;;;;;;;;;;;;;;;;;5077734;28;20390;-74
2022/01/02 13:30:19;;;;;;;;;;;;;;;;;;5074999;28;19986;-74
2022/01/02 13:32:44;;;;;;;;;;;;;;;;;;5084255;28;19962;-76
2022/01/02 13:35:10;;;;;;;;;;;;;;;;;;5093628;28;19916;-75
2022/01/02 13:37:37;;;;;;;;;;;;;;;;;;5095044;28;19916;-74
2022/01/02 13:40:04;;;;;;;;;;;;;;;;;;5093991;28;19966;-74
2022/01/02 13:42:40;;;;;;;;;;;;;;;;;;5094912;28;19924;-74
2022/01/02 13:45:09;;;;;;;;;;;;;;;;;;5093826;28;20365;-73
2022/01/02 13:47:35;;;;;;;;;;;;;;;;;;5094737;28;19967;-73
2022/01/02 13:50:00;;;;;;;;;;;;;;;;;;5094750;28;19923;-73
2022/01/02 13:52:26;;;;;;;;;;;;;;;;;;5092862;28;19916;-74
2022/01/02 13:55:05;;;;;;;;;;;;;;;;;;5093870;28;20389;-74
2022/01/02 13:57:31;;;;;;;;;;;;;;;;;;5094571;28;20006;-73
2022/01/02 13:59:56;;;;;;;;;;;;;;;;;;5093911;28;19986;-76
2022/01/02 14:02:36;;;;;;;;;;;;;;;;;;5094430;28;19920;-73
2022/01/02 14:05:02;;;;;;;;;;;;;;;;;;5078636;28;20270;-73
2022/01/02 14:07:28;;;;;;;;;;;;;;;;;;5092694;28;19923;-73
2022/01/02 14:09:54;;;;;;;;;;;;;;;;;;5094487;28;19959;-73
2022/01/02 14:12:27;;;;;;;;;;;;;;;;;;5097468;28;20396;-73
2022/01/02 14:15:02;;;;;;;;;;;;;;;;;;5090207;28;19927;-73
2022/01/02 14:17:33;;;;;;;;;;;;;;;;;;5089312;28;19923;-73
2022/01/02 14:20:00;;;;;;;;;;;;;;;;;;5094523;28;20323;-73
2022/01/02 14:22:26;;;;;;;;;;;;;;;;;;5092880;28;19920;-73
2022/01/02 14:24:53;;;;;;;;;;;;;;;;;;5094199;28;19958;-73
2022/01/02 14:27:21;;;;;;;;;;;;;;;;;;5093940;28;19999;-73
2022/01/02 14:29:47;;;;;;;;;;;;;;;;;;5093985;28;19924;-73
2022/01/02 14:32:14;;;;;;;;;;;;;;;;;;5093495;28;19916;-73
2022/01/02 14:34:39;;;;;;;;;;;;;;;;;;5092980;28;19967;-73
2022/01/02 14:37:05;;;;;;;;;;;;;;;;;;5094087;28;19916;-73
2022/01/02 14:39:30;;;;;;;;;;;;;;;;;;5094068;28;20399;-73
2022/01/02 14:41:55;;;;;;;;;;;;;;;;;;5092794;28;19920;-72
2022/01/02 14:44:21;;;;;;;;;;;;;;;;;;5093557;28;19920;-73
2022/01/02 14:46:48;;;;;;;;;;;;;;;;;;5093543;28;19920;-73
2022/01/02 14:49:14;;;;;;;;;;;;;;;;;;5094107;28;20254;-73
2022/01/02 14:51:39;;;;;;;;;;;;;;;;;;5087376;28;19917;-73
2022/01/02 14:54:05;;;;;;;;;;;;;;;;;;5078212;28;19923;-72
2022/01/02 14:56:31;;;;;;;;;;;;;;;;;;5093835;28;19916;-73
2022/01/02 14:58:56;;;;;;;;;;;;;;;;;;5092034;28;19916;-72
2022/01/02 15:01:25;;;;;;;;;;;;;;;;;;5092870;28;19920;-72
2022/01/02 15:03:51;;;;;;;;;;;;;;;;;;5073443;28;19917;-72
2022/01/02 15:06:16;;;;;;;;;;;;;;;;;;5073532;28;20274;-73
2022/01/02 15:08:42;;;;;;;;;;;;;;;;;;5091939;28;19916;-72
2022/01/02 15:11:08;;;;;;;;;;;;;;;;;;5093647;28;20285;-73
2022/01/02 15:13:34;;;;;;;;;;;;;;;;;;5093555;28;19981;-73
2022/01/02 15:15:59;;;;;;;;;;;;;;;;;;5092676;28;20277;-73
2022/01/02 15:18:24;;;;;;;;;;;;;;;;;;5093749;28;20372;-73
2022/01/02 15:20:50;;;;;;;;;;;;;;;;;;5093696;28;19916;-73
2022/01/02 15:23:15;;;;;;;;;;;;;;;;;;5093472;28;19974;-73
2022/01/02 15:25:41;;;;;;;;;;;;;;;;;;5092395;28;19920;-73
2022/01/02 15:28:06;;;;;;;;;;;;;;;;;;5093511;28;19919;-73
2022/01/02 15:30:32;;;;;;;;;;;;;;;;;;5091745;28;19913;-73
2022/01/02 15:32:57;;;;;;;;;;;;;;;;;;5093574;28;19922;-73
2022/01/02 15:35:24;;;;;;;;;;;;;;;;;;5092262;28;20299;-73
2022/01/02 15:37:49;;;;;;;;;;;;;;;;;;5092108;28;19916;-73
2022/01/02 15:40:16;;;;;;;;;;;;;;;;;;5093445;28;19923;-73
2022/01/02 15:42:41;;;;;;;;;;;;;;;;;;5092703;28;19920;-72
2022/01/02 15:45:07;;;;;;;;;;;;;;;;;;5093356;28;20385;-73
2022/01/02 15:47:32;;;;;;;;;;;;;;;;;;5092332;28;20337;-73
2022/01/02 15:49:58;;;;;;;;;;;;;;;;;;5092124;28;19958;-73
2022/01/02 15:52:23;;;;;;;;;;;;;;;;;;5093440;28;20285;-73
2022/01/02 15:54:48;;;;;;;;;;;;;;;;;;5093441;28;19948;-72
2022/01/02 15:57:14;;;;;;;;;;;;;;;;;;5093773;28;19916;-72
2022/01/02 15:59:39;;;;;;;;;;;;;;;;;;5095761;28;19923;-72
2022/01/02 16:02:04;;;;;;;;;;;;;;;;;;5096216;28;19924;-72
2022/01/02 16:04:29;;;;;;;;;;;;;;;;;;5096731;28;19915;-73
2022/01/02 16:06:54;;;;;;;;;;;;;;;;;;5096231;28;19963;-72
2022/01/02 16:09:20;;;;;;;;;;;;;;;;;;5096607;28;20278;-72
2022/01/02 16:11:45;;;;;;;;;;;;;;;;;;5096889;28;19916;-73
2022/01/02 16:14:11;;;;;;;;;;;;;;;;;;5096858;28;20050;-73
2022/01/02 16:16:36;;;;;;;;;;;;;;;;;;5096009;28;20439;-73
2022/01/02 16:19:02;;;;;;;;;;;;;;;;;;5096738;28;19920;-73
2022/01/02 16:21:28;;;;;;;;;;;;;;;;;;5096676;28;20266;-72
2022/01/02 16:23:56;;;;;;;;;;;;;;;;;;5096590;28;19912;-72
2022/01/02 16:26:21;;;;;;;;;;;;;;;;;;5096335;28;19942;-73
2022/01/02 16:28:48;;;;;;;;;;;;;;;;;;5095548;28;20370;-72
2022/01/02 16:31:16;;;;;;;;;;;;;;;;;;5096508;28;19916;-72
2022/01/02 16:33:42;;;;;;;;;;;;;;;;;;5096438;28;20026;-72
2022/01/02 16:36:08;;;;;;;;;;;;;;;;;;5096416;28;19963;-73
2022/01/02 16:38:33;;;;;;;;;;;;;;;;;;5096396;28;19923;-72
2022/01/02 16:40:59;;;;;;;;;;;;;;;;;;5087814;28;19916;-73
2022/01/02 16:43:24;;;;;;;;;;;;;;;;;;5075495;28;19963;-73
2022/01/02 16:45:50;;;;;;;;;;;;;;;;;;5075787;28;19962;-72
2022/01/02 16:48:15;;;;;;;;;;;;;;;;;;5075442;28;19927;-72
2022/01/02 16:50:40;;;;;;;;;;;;;;;;;;5075837;28;19962;-72
2022/01/02 16:53:06;;;;;;;;;;;;;;;;;;5091945;28;19920;-73